Terminal Aerodrome Forecast
Issued by NWS Tulsa, OK

Home | Current Version | Previous Version | Text Only | Print | Product List | Glossary On
Versions: 1 2 3 4 5 6 7 8 9 10 11 12 13 14
477
FTUS44 KTSA 241758 AAA
TAFFSM
TAF AMD
KFSM 241758Z 2418/2518 08006KT P6SM VCTS BKN035CB
     FM242100 16008KT P6SM OVC100
     FM250000 16007KT P6SM BKN250
     FM251200 18006KT P6SM OVC025
     FM251500 19013KT P6SM BKN050=

USA.gov is the U.S. government's official web portal to all federal, state and local government web resources and services.